createdAt,value
2018-06-10T00:00:39.906Z,27.47
2018-06-10T00:02:45.517Z,27.48
2018-06-10T00:04:51.513Z,27.46
2018-06-10T00:06:56.903Z,27.46
2018-06-10T00:09:02.158Z,27.31
2018-06-10T00:11:10.406Z,27.21
2018-06-10T00:13:17.678Z,27.29
2018-06-10T00:15:25.626Z,27.05
2018-06-10T00:17:32.370Z,26.66
2018-06-10T00:19:38.134Z,26.49
2018-06-10T00:21:43.420Z,26.61
2018-06-10T00:23:48.922Z,26.68
2018-06-10T00:25:54.162Z,26.81
2018-06-10T00:27:59.399Z,26.65
2018-06-10T00:30:05.567Z,26.42
2018-06-10T00:32:14.706Z,26.33
2018-06-10T00:34:21.321Z,26.27
2018-06-10T00:36:29.050Z,26.29
2018-06-10T00:38:34.518Z,26.24
2018-06-10T00:40:40.166Z,26.44
2018-06-10T00:42:46.492Z,26.47
2018-06-10T00:44:51.979Z,26.29
2018-06-10T00:46:58.335Z,26.14
2018-06-10T00:49:04.749Z,26.26
2018-06-10T00:51:13.720Z,26.31
2018-06-10T00:53:23.200Z,26.41
2018-06-10T00:55:29.417Z,26.53
2018-06-10T00:57:35.712Z,26.70
2018-06-10T00:59:41.950Z,26.73
2018-06-10T01:01:47.455Z,26.58
2018-06-10T01:03:52.982Z,26.79
2018-06-10T01:05:58.856Z,26.65
2018-06-10T01:08:04.470Z,26.91
2018-06-10T01:10:14.299Z,26.94
2018-06-10T01:12:23.183Z,27.12
2018-06-10T01:14:29.434Z,27.04
2018-06-10T01:16:34.893Z,26.86
2018-06-10T01:18:40.292Z,26.86
2018-06-10T01:20:46.841Z,27.01
2018-06-10T01:22:52.115Z,27.10
2018-06-10T01:24:57.346Z,27.08
2018-06-10T01:27:03.023Z,26.93
2018-06-10T01:29:11.057Z,26.62
2018-06-10T01:31:19.994Z,26.28
2018-06-10T01:33:29.737Z,26.19
2018-06-10T01:35:35.979Z,25.96
2018-06-10T01:37:42.872Z,26.17
2018-06-10T01:39:49.241Z,26.30
2018-06-10T01:41:55.302Z,26.49
2018-06-10T01:44:02.207Z,26.37
2018-06-10T01:46:10.901Z,26.46
2018-06-10T01:48:18.522Z,26.68
2018-06-10T01:50:27.416Z,26.41
2018-06-10T01:52:33.702Z,26.50
2018-06-10T01:54:39.676Z,26.60
2018-06-10T01:56:45.594Z,26.72
2018-06-10T01:58:51.946Z,26.82
2018-06-10T02:00:57.313Z,26.72
2018-06-10T02:03:03.278Z,26.90
2018-06-10T02:05:13.094Z,26.73
2018-06-10T02:07:24.067Z,26.74
2018-06-10T02:09:30.216Z,26.55
2018-06-10T02:11:36.597Z,26.40
2018-06-10T02:13:42.831Z,26.52
2018-06-10T02:15:49.725Z,26.46
2018-06-10T02:17:56.313Z,26.18
2018-06-10T02:20:02.920Z,26.09
2018-06-10T02:22:12.774Z,26.41
2018-06-10T02:24:27.936Z,26.74
2018-06-10T02:26:33.719Z,26.50
2018-06-10T02:28:40.082Z,26.53
2018-06-10T02:30:46.310Z,26.74
2018-06-10T02:32:52.278Z,26.61
2018-06-10T02:34:58.482Z,26.61
2018-06-10T02:37:04.808Z,26.77
2018-06-10T02:39:14.847Z,26.81
2018-06-10T02:41:23.159Z,26.69
2018-06-10T02:43:29.650Z,26.60
2018-06-10T02:45:35.715Z,26.43
2018-06-10T02:47:41.781Z,26.40
2018-06-10T02:49:47.831Z,26.48
2018-06-10T02:51:54.140Z,26.63
2018-06-10T02:54:00.031Z,26.66
2018-06-10T02:56:06.032Z,26.54
2018-06-10T02:58:15.554Z,25.99
2018-06-10T03:00:23.351Z,25.95
2018-06-10T03:02:29.202Z,25.79
2018-06-10T03:04:35.511Z,25.73
2018-06-10T03:06:40.982Z,26.12
2018-06-10T03:08:46.923Z,26.30
2018-06-10T03:10:52.486Z,26.49
2018-06-10T03:12:58.590Z,26.33
2018-06-10T03:15:05.506Z,26.23
2018-06-10T03:17:14.310Z,26.17
2018-06-10T03:19:22.468Z,26.26
2018-06-10T03:21:27.795Z,26.30
2018-06-10T03:23:34.011Z,26.09
2018-06-10T03:25:39.850Z,26.22
2018-06-10T03:27:45.652Z,25.81
2018-06-10T03:29:51.402Z,25.44
2018-06-10T03:31:57.552Z,25.61
2018-06-10T03:34:03.055Z,25.96
2018-06-10T03:36:12.587Z,26.05
2018-06-10T03:38:23.898Z,26.20
2018-06-10T03:40:29.634Z,26.16
2018-06-10T03:42:35.946Z,26.22
2018-06-10T03:44:42.456Z,26.20
2018-06-10T03:46:48.243Z,26.38
2018-06-10T03:48:54.499Z,26.10
2018-06-10T03:51:00.168Z,26.09
2018-06-10T03:53:06.925Z,26.00
2018-06-10T03:55:18.570Z,25.85
2018-06-10T03:57:25.603Z,25.90
2018-06-10T03:59:31.214Z,26.37
2018-06-10T04:01:37.154Z,26.37
2018-06-10T04:03:42.835Z,26.40
2018-06-10T04:05:48.758Z,26.28
2018-06-10T04:07:55.138Z,26.33
2018-06-10T04:10:00.773Z,26.01
2018-06-10T04:12:08.425Z,26.20
2018-06-10T04:14:19.676Z,26.19
2018-06-10T04:16:29.051Z,26.15
2018-06-10T04:18:34.945Z,26.18
2018-06-10T04:20:40.943Z,25.93
2018-06-10T04:22:47.038Z,25.60
2018-06-10T04:24:52.819Z,25.89
2018-06-10T04:26:58.743Z,25.83
2018-06-10T04:29:04.936Z,25.75
2018-06-10T04:31:17.964Z,25.92
2018-06-10T04:33:25.426Z,26.05
2018-06-10T04:35:31.207Z,25.87
2018-06-10T04:37:37.386Z,25.81
2018-06-10T04:39:43.802Z,25.74
2018-06-10T04:41:49.505Z,25.55
2018-06-10T04:43:55.882Z,25.49
2018-06-10T04:46:01.953Z,25.80
2018-06-10T04:48:10.419Z,26.13
2018-06-10T04:50:19.821Z,26.00
2018-06-10T04:52:26.582Z,25.90
2018-06-10T04:54:32.586Z,26.08
2018-06-10T04:56:38.569Z,25.96
2018-06-10T04:58:44.062Z,25.90
2018-06-10T05:00:49.283Z,25.99
2018-06-10T05:02:54.930Z,26.11
2018-06-10T05:05:01.768Z,25.93
2018-06-10T05:07:10.459Z,25.69
2018-06-10T05:09:20.252Z,26.14
2018-06-10T05:11:27.304Z,26.05
2018-06-10T05:13:35.986Z,25.97
2018-06-10T05:15:41.670Z,26.10
2018-06-10T05:17:47.765Z,25.65
2018-06-10T05:19:53.710Z,25.89
2018-06-10T05:21:59.720Z,26.44
2018-06-10T05:24:07.290Z,26.37
2018-06-10T05:26:16.164Z,26.28
2018-06-10T05:28:24.439Z,26.45
2018-06-10T05:30:30.560Z,26.50
2018-06-10T05:32:36.554Z,26.28
2018-06-10T05:34:42.098Z,26.59
2018-06-10T05:36:48.141Z,26.45
2018-06-10T05:38:55.155Z,26.64
2018-06-10T05:41:00.850Z,26.54
2018-06-10T05:43:08.457Z,26.56
2018-06-10T05:45:17.404Z,26.69
2018-06-10T05:47:24.627Z,26.80
2018-06-10T05:49:30.694Z,26.63
2018-06-10T05:51:36.639Z,26.48
2018-06-10T05:53:43.360Z,26.49
2018-06-10T05:55:48.555Z,26.31
2018-06-10T05:57:54.489Z,26.37
2018-06-10T06:00:00.634Z,26.65
2018-06-10T06:02:08.411Z,26.36
2018-06-10T06:04:16.407Z,26.55
2018-06-10T06:06:24.767Z,26.39
2018-06-10T06:08:31.141Z,26.36
2018-06-10T06:10:36.978Z,26.24
2018-06-10T06:12:43.818Z,26.22
2018-06-10T06:14:49.484Z,26.54
2018-06-10T06:16:55.242Z,26.58
2018-06-10T06:19:01.651Z,26.56
2018-06-10T06:21:08.537Z,26.35
2018-06-10T06:23:17.159Z,26.64
2018-06-10T06:25:25.549Z,26.76
2018-06-10T06:27:31.490Z,26.79
2018-06-10T06:29:37.170Z,26.80
2018-06-10T06:31:42.703Z,26.80
2018-06-10T06:33:48.639Z,26.96
2018-06-10T06:35:53.952Z,27.11
2018-06-10T06:37:59.425Z,26.94
2018-06-10T06:40:05.958Z,27.13
2018-06-10T06:42:15.391Z,27.16
2018-06-10T06:44:24.820Z,27.07
2018-06-10T06:46:30.527Z,26.84
2018-06-10T06:48:36.433Z,26.90
2018-06-10T06:50:42.870Z,27.16
2018-06-10T06:52:48.498Z,27.03
2018-06-10T06:54:54.238Z,27.21
2018-06-10T06:57:00.510Z,27.21
2018-06-10T06:59:07.437Z,27.22
2018-06-10T07:01:15.073Z,27.24
2018-06-10T07:03:22.669Z,27.27
2018-06-10T07:05:27.933Z,27.10
2018-06-10T07:07:33.646Z,26.98
2018-06-10T07:09:39.346Z,27.10
2018-06-10T07:11:44.602Z,26.96
2018-06-10T07:13:50.410Z,27.25
2018-06-10T07:15:56.652Z,27.10
2018-06-10T07:18:02.908Z,27.17
2018-06-10T07:20:11.060Z,26.93
2018-06-10T07:22:19.294Z,27.05
2018-06-10T07:24:25.292Z,27.17
2018-06-10T07:26:31.499Z,27.06
2018-06-10T07:28:37.860Z,26.91
2018-06-10T07:30:43.176Z,26.92
2018-06-10T07:32:48.499Z,26.97
2018-06-10T07:34:54.664Z,27.33
2018-06-10T07:36:59.958Z,27.20
2018-06-10T07:39:09.501Z,27.40
2018-06-10T07:41:19.670Z,27.34
2018-06-10T07:43:27.162Z,27.47
2018-06-10T07:45:32.362Z,27.46
2018-06-10T07:47:39.972Z,27.48
2018-06-10T07:49:45.144Z,27.54
2018-06-10T07:51:51.613Z,27.48
2018-06-10T07:53:57.109Z,27.48
2018-06-10T07:56:03.002Z,27.49
2018-06-10T07:58:10.627Z,27.66
2018-06-10T08:00:19.805Z,27.53
2018-06-10T08:02:26.664Z,27.61
2018-06-10T08:04:31.865Z,27.54
2018-06-10T08:06:37.485Z,27.74
2018-06-10T08:08:42.765Z,27.64
2018-06-10T08:10:48.763Z,27.45
2018-06-10T08:12:54.329Z,27.53
2018-06-10T08:15:00.526Z,27.58
2018-06-10T08:17:05.812Z,27.37
2018-06-10T08:19:14.775Z,27.26
2018-06-10T08:21:23.019Z,27.47
2018-06-10T08:23:29.282Z,27.42
2018-06-10T08:25:35.544Z,27.36
2018-06-10T08:27:40.742Z,27.38
2018-06-10T08:29:46.184Z,27.52
2018-06-10T08:31:51.793Z,27.46
2018-06-10T08:33:57.079Z,27.63
2018-06-10T08:36:02.333Z,27.58
2018-06-10T08:38:10.971Z,27.46
2018-06-10T08:40:18.319Z,27.50
2018-06-10T08:42:24.731Z,27.61
2018-06-10T08:44:30.254Z,27.69
2018-06-10T08:46:35.486Z,27.67
2018-06-10T08:48:41.176Z,27.56
2018-06-10T08:50:46.695Z,27.43
2018-06-10T08:52:51.958Z,27.32
2018-06-10T08:54:57.371Z,27.48
2018-06-10T08:57:03.085Z,27.32
2018-06-10T08:59:11.377Z,27.23
2018-06-10T09:01:22.053Z,27.17
2018-06-10T09:03:27.580Z,27.28
2018-06-10T09:05:32.892Z,27.30
2018-06-10T09:07:38.093Z,27.13
2018-06-10T09:09:43.673Z,27.14
2018-06-10T09:11:48.920Z,27.21
2018-06-10T09:13:54.389Z,27.33
2018-06-10T09:16:00.097Z,27.60
2018-06-10T09:18:06.043Z,27.74
2018-06-10T09:20:18.837Z,27.68
2018-06-10T09:22:27.562Z,27.66
2018-06-10T09:24:32.998Z,27.79
2018-06-10T09:26:38.255Z,27.77
2018-06-10T09:28:43.936Z,27.83
2018-06-10T09:30:50.357Z,27.91
2018-06-10T09:32:55.598Z,27.83
2018-06-10T09:35:01.299Z,27.73
2018-06-10T09:37:06.700Z,27.77
2018-06-10T09:39:14.660Z,27.87
2018-06-10T09:41:23.129Z,27.99
2018-06-10T09:43:28.346Z,27.80
2018-06-10T09:45:33.943Z,27.97
2018-06-10T09:47:39.521Z,27.95
2018-06-10T09:49:44.796Z,28.04
2018-06-10T09:51:50.095Z,27.97
2018-06-10T09:53:55.621Z,27.83
2018-06-10T09:56:01.387Z,27.73
2018-06-10T09:58:08.991Z,27.70
2018-06-10T10:00:22.035Z,27.91
2018-06-10T10:02:27.521Z,27.70
2018-06-10T10:04:32.882Z,27.71
2018-06-10T10:06:38.476Z,27.75
2018-06-10T10:08:43.824Z,27.72
2018-06-10T10:10:49.246Z,27.85
2018-06-10T10:12:54.808Z,28.01
2018-06-10T10:15:00.108Z,28.03
2018-06-10T10:17:06.914Z,28.26
2018-06-10T10:19:15.555Z,28.47
2018-06-10T10:21:23.847Z,28.53
2018-06-10T10:23:29.246Z,28.59
2018-06-10T10:25:34.848Z,28.72
2018-06-10T10:27:40.010Z,28.69
2018-06-10T10:29:45.430Z,28.67
2018-06-10T10:31:50.970Z,28.61
2018-06-10T10:33:56.272Z,28.65
2018-06-10T10:36:01.721Z,28.54
2018-06-10T10:38:09.985Z,28.40
2018-06-10T10:40:19.498Z,28.54
2018-06-10T10:42:26.209Z,28.59
2018-06-10T10:44:31.791Z,28.48
2018-06-10T10:46:37.109Z,28.63
2018-06-10T10:48:42.460Z,28.70
2018-06-10T10:50:47.976Z,28.63
2018-06-10T10:52:53.207Z,28.92
2018-06-10T10:54:58.892Z,29.12
2018-06-10T10:57:04.833Z,29.15
2018-06-10T10:59:12.746Z,29.16
2018-06-10T11:01:19.613Z,29.05
2018-06-10T11:03:27.554Z,29.02
2018-06-10T11:05:33.457Z,29.11
2018-06-10T11:07:38.831Z,29.27
2018-06-10T11:09:44.550Z,29.36
2018-06-10T11:11:50.136Z,29.34
2018-06-10T11:13:57.310Z,29.37
2018-06-10T11:16:04.407Z,29.53
2018-06-10T11:18:22.360Z,29.58
2018-06-10T11:20:29.385Z,29.52
2018-06-10T11:22:37.218Z,29.55
2018-06-10T11:24:43.832Z,29.56
2018-06-10T11:26:55.774Z,29.52
2018-06-10T11:29:18.994Z,29.75
2018-06-10T11:31:28.931Z,29.73
2018-06-10T11:33:35.655Z,29.68
2018-06-10T11:35:43.651Z,29.87
2018-06-10T11:37:49.202Z,29.79
2018-06-10T11:39:58.329Z,29.86
2018-06-10T11:42:05.919Z,29.78
2018-06-10T11:44:17.503Z,29.88
2018-06-10T11:46:25.834Z,30.02
2018-06-10T11:48:32.088Z,29.94
2018-06-10T11:52:59.476Z,30.05
2018-06-10T11:55:11.793Z,30.15
2018-06-10T11:57:19.879Z,30.21
2018-06-10T11:59:26.432Z,30.22
2018-06-10T12:01:34.068Z,30.22
2018-06-10T12:03:43.449Z,30.31
2018-06-10T12:05:52.176Z,30.47
2018-06-10T12:08:03.330Z,30.78
2018-06-10T12:10:14.291Z,31.34
2018-06-10T12:12:24.395Z,32.07
2018-06-10T12:16:45.539Z,32.15
2018-06-10T12:18:53.303Z,32.59
2018-06-10T12:20:59.247Z,33.87
2018-06-10T12:23:05.586Z,34.62
2018-06-10T12:25:14.316Z,34.71
2018-06-10T12:27:23.350Z,34.33
2018-06-10T12:29:28.674Z,34.79
2018-06-10T12:31:34.981Z,35.51
2018-06-10T12:33:44.806Z,35.90
2018-06-10T12:35:50.134Z,36.21
2018-06-10T12:37:55.422Z,36.42
2018-06-10T12:40:01.336Z,36.43
2018-06-10T12:42:08.229Z,36.74
2018-06-10T12:44:17.071Z,36.90
2018-06-10T12:46:25.068Z,37.06
2018-06-10T12:48:31.640Z,37.02
2018-06-10T12:50:37.546Z,37.02
2018-06-10T12:52:43.267Z,37.52
2018-06-10T12:54:48.621Z,37.77
2018-06-10T12:56:55.197Z,38.05
2018-06-10T12:59:01.279Z,37.83
2018-06-10T13:01:07.607Z,38.32
2018-06-10T13:03:15.547Z,38.52
2018-06-10T13:05:23.824Z,38.48
2018-06-10T13:07:29.745Z,38.65
2018-06-10T13:09:35.808Z,38.73
2018-06-10T13:11:41.385Z,38.73
2018-06-10T13:13:46.610Z,38.72
2018-06-10T13:15:51.894Z,38.84
2018-06-10T13:17:57.601Z,38.83
2018-06-10T13:20:03.008Z,39.10
2018-06-10T13:22:11.428Z,36.17
2018-06-10T13:24:22.761Z,34.55
2018-06-10T13:26:28.060Z,37.95
2018-06-10T13:28:33.381Z,38.68
2018-06-10T13:30:39.818Z,38.24
2018-06-10T13:32:46.021Z,35.78
2018-06-10T13:34:51.769Z,36.79
2018-06-10T13:36:57.287Z,38.13
2018-06-10T13:39:11.957Z,38.68
2018-06-10T13:41:30.220Z,36.36
2018-06-10T13:43:35.930Z,35.76
2018-06-10T13:45:41.348Z,34.55
2018-06-10T13:47:47.001Z,33.19
2018-06-10T13:49:52.699Z,34.05
2018-06-10T13:51:57.967Z,35.12
2018-06-10T13:54:03.208Z,35.75
2018-06-10T13:56:10.167Z,36.90
2018-06-10T13:58:20.820Z,37.32
2018-06-10T14:00:26.281Z,37.13
2018-06-10T14:02:32.262Z,37.03
2018-06-10T14:04:37.510Z,36.92
2018-06-10T14:06:43.290Z,36.97
2018-06-10T14:08:48.874Z,36.77
2018-06-10T14:10:54.171Z,36.59
2018-06-10T14:12:59.493Z,36.12
2018-06-10T14:15:05.761Z,35.70
2018-06-10T14:17:15.175Z,35.46
2018-06-10T14:19:25.458Z,35.28
2018-06-10T14:21:30.924Z,35.10
2018-06-10T14:25:45.977Z,34.21
2018-06-10T14:27:51.478Z,33.43
2018-06-10T14:29:56.789Z,33.46
2018-06-10T14:32:02.181Z,33.78
2018-06-10T14:34:10.558Z,33.20
2018-06-10T14:36:22.090Z,32.85
2018-06-10T14:38:28.251Z,33.21
2018-06-10T14:40:33.916Z,33.49
2018-06-10T14:42:39.294Z,33.78
2018-06-10T14:44:44.410Z,33.64
2018-06-10T14:46:50.170Z,33.63
2018-06-10T14:49:44.340Z,32.80
2018-06-10T14:51:49.735Z,32.55
2018-06-10T14:53:55.438Z,32.58
2018-06-10T14:56:00.678Z,33.15
2018-06-10T14:58:07.698Z,33.37
2018-06-10T15:00:18.323Z,33.38
2018-06-10T15:02:24.627Z,33.29
2018-06-10T15:04:30.028Z,33.30
2018-06-10T15:06:35.614Z,33.42
2018-06-10T15:08:42.182Z,33.40
2018-06-10T15:12:16.401Z,33.37
2018-06-10T15:14:22.806Z,33.29
2018-06-10T15:16:29.228Z,33.35
2018-06-10T15:18:35.132Z,33.37
2018-06-10T15:20:40.498Z,33.47
2018-06-10T15:22:46.046Z,33.32
2018-06-10T15:24:53.546Z,33.35
2018-06-10T15:26:59.003Z,33.36
2018-06-10T15:29:04.823Z,33.46
2018-06-10T15:31:13.822Z,33.48
2018-06-10T15:33:22.654Z,33.27
2018-06-10T15:35:27.962Z,33.24
2018-06-10T15:37:34.348Z,33.41
2018-06-10T15:39:39.942Z,33.53
2018-06-10T15:41:46.938Z,33.29
2018-06-10T15:43:53.033Z,33.26
2018-06-10T15:45:58.536Z,33.43
2018-06-10T15:48:04.186Z,33.47
2018-06-10T15:50:12.855Z,33.52
2018-06-10T15:52:22.872Z,33.71
2018-06-10T15:54:28.646Z,33.22
2018-06-10T15:56:35.496Z,32.85
2018-06-10T15:58:41.618Z,32.63
2018-06-10T16:00:48.066Z,32.49
2018-06-10T16:02:53.635Z,32.40
2018-06-10T16:04:59.170Z,32.56
2018-06-10T16:07:06.133Z,32.84
2018-06-10T16:09:13.488Z,33.11
2018-06-10T16:11:22.404Z,33.19
2018-06-10T16:13:31.961Z,33.24
2018-06-10T16:15:38.043Z,33.26
2018-06-10T16:17:43.884Z,33.21
2018-06-10T16:19:49.761Z,33.24
2018-06-10T16:21:55.441Z,33.25
2018-06-10T16:24:03.962Z,33.14
2018-06-10T16:26:11.986Z,33.20
2018-06-10T16:28:19.576Z,33.19
2018-06-10T16:30:26.377Z,33.23
2018-06-10T16:32:31.948Z,33.13
2018-06-10T16:34:37.713Z,33.07
2018-06-10T16:36:43.192Z,33.06
2018-06-10T16:38:48.745Z,33.08
2018-06-10T16:40:54.755Z,32.99
2018-06-10T16:43:00.216Z,32.83
2018-06-10T16:47:21.186Z,32.37
2018-06-10T16:49:27.810Z,32.28
2018-06-10T16:51:33.523Z,32.18
2018-06-10T16:53:40.750Z,32.10
2018-06-10T16:55:46.456Z,31.90
2018-06-10T16:57:52.611Z,31.84
2018-06-10T16:59:58.144Z,31.65
2018-06-10T17:02:10.728Z,31.52
2018-06-10T17:04:18.148Z,31.46
2018-06-10T17:06:25.859Z,31.37
2018-06-10T17:08:31.652Z,31.20
2018-06-10T17:10:39.717Z,31.15
2018-06-10T17:12:47.104Z,31.03
2018-06-10T17:14:54.278Z,30.98
2018-06-10T17:17:00.085Z,30.90
2018-06-10T17:19:05.894Z,30.78
2018-06-10T17:21:14.366Z,30.76
2018-06-10T17:23:25.733Z,30.80
2018-06-10T17:25:32.013Z,30.76
2018-06-10T17:27:37.416Z,30.79
2018-06-10T17:29:43.230Z,30.89
2018-06-10T17:31:49.092Z,31.01
2018-06-10T17:33:55.287Z,31.11
2018-06-10T17:36:01.982Z,31.05
2018-06-10T17:38:10.064Z,31.03
2018-06-10T17:40:21.019Z,30.85
2018-06-10T17:42:28.874Z,30.80
2018-06-10T17:44:34.686Z,30.77
2018-06-10T17:46:39.954Z,30.73
2018-06-10T17:48:45.206Z,30.76
2018-06-10T17:50:50.970Z,30.77
2018-06-10T17:52:56.439Z,30.63
2018-06-10T17:55:02.095Z,30.72
2018-06-10T17:57:14.821Z,30.59
2018-06-10T17:59:23.194Z,30.56
2018-06-10T18:01:28.626Z,30.51
2018-06-10T18:03:34.442Z,30.66
2018-06-10T18:05:39.887Z,30.73
2018-06-10T18:07:45.311Z,30.68
2018-06-10T18:09:51.503Z,30.64
2018-06-10T18:11:57.111Z,30.56
2018-06-10T18:14:02.821Z,30.67
2018-06-10T18:16:13.041Z,30.82
2018-06-10T18:18:19.890Z,30.77
2018-06-10T18:20:25.466Z,30.80
2018-06-10T18:22:33.054Z,30.81
2018-06-10T18:24:38.737Z,30.80
2018-06-10T18:26:44.265Z,30.82
2018-06-10T18:28:51.355Z,30.79
2018-06-10T18:30:57.540Z,30.75
2018-06-10T18:33:03.676Z,30.73
2018-06-10T18:35:12.969Z,30.69
2018-06-10T18:37:23.778Z,30.62
2018-06-10T18:39:29.618Z,30.61
2018-06-10T18:41:36.873Z,30.62
2018-06-10T18:43:43.343Z,30.53
2018-06-10T18:45:50.341Z,30.44
2018-06-10T18:47:56.846Z,30.41
2018-06-10T18:50:02.645Z,30.33
2018-06-10T18:52:11.897Z,30.31
2018-06-10T18:54:21.129Z,30.22
2018-06-10T18:56:27.265Z,30.04
2018-06-10T18:58:35.861Z,30.15
2018-06-10T19:00:42.427Z,30.10
2018-06-10T19:02:47.952Z,29.97
2018-06-10T19:04:53.405Z,29.99
2018-06-10T19:06:59.341Z,30.02
2018-06-10T19:09:06.326Z,29.90
2018-06-10T19:11:14.790Z,29.95
2018-06-10T19:13:23.522Z,29.92
2018-06-10T19:15:29.238Z,29.82
2018-06-10T19:17:34.575Z,29.70
2018-06-10T19:19:40.183Z,29.74
2018-06-10T19:21:45.770Z,29.71
2018-06-10T19:23:51.201Z,29.64
2018-06-10T19:25:56.838Z,29.62
2018-06-10T19:28:02.376Z,29.63
2018-06-10T19:30:09.903Z,29.53
2018-06-10T19:32:18.542Z,29.36
2018-06-10T19:34:24.962Z,29.32
2018-06-10T19:36:30.416Z,29.35
2018-06-10T19:38:36.245Z,29.39
2018-06-10T19:40:41.518Z,28.94
2018-06-10T19:42:46.791Z,28.78
2018-06-10T19:44:56.444Z,28.66
2018-06-10T19:47:02.113Z,28.55
2018-06-10T19:49:09.526Z,28.70
2018-06-10T19:51:17.796Z,28.51
2018-06-10T19:53:25.162Z,28.49
2018-06-10T19:55:30.674Z,28.46
2018-06-10T19:57:36.864Z,28.83
2018-06-10T19:59:42.155Z,29.00
2018-06-10T20:01:47.399Z,29.04
2018-06-10T20:03:53.184Z,28.82
2018-06-10T20:05:58.441Z,28.98
2018-06-10T20:08:04.116Z,28.82
2018-06-10T20:10:13.172Z,28.27
2018-06-10T20:12:21.353Z,28.60
2018-06-10T20:14:26.684Z,28.82
2018-06-10T20:16:32.206Z,28.79
2018-06-10T20:18:37.674Z,28.82
2018-06-10T20:20:48.355Z,28.77
2018-06-10T20:22:54.078Z,28.61
2018-06-10T20:24:59.378Z,28.47
2018-06-10T20:27:05.431Z,28.29
2018-06-10T20:29:14.098Z,28.19
2018-06-10T20:31:24.256Z,28.40
2018-06-10T20:33:30.640Z,28.53
2018-06-10T20:35:36.319Z,28.63
2018-06-10T20:37:41.939Z,28.64
2018-06-10T20:39:47.295Z,28.61
2018-06-10T20:41:52.980Z,28.62
2018-06-10T20:43:58.333Z,28.41
2018-06-10T20:46:03.738Z,28.49
2018-06-10T20:48:12.594Z,28.53
2018-06-10T20:50:20.392Z,28.52
2018-06-10T20:52:27.730Z,28.47
2018-06-10T20:54:33.375Z,28.54
2018-06-10T20:56:38.966Z,28.55
2018-06-10T20:58:44.325Z,28.56
2018-06-10T21:00:49.849Z,28.57
2018-06-10T21:02:55.476Z,28.54
2018-06-10T21:05:01.034Z,28.54
2018-06-10T21:07:09.676Z,28.46
2018-06-10T21:11:31.478Z,28.15
2018-06-10T21:13:37.098Z,28.32
2018-06-10T21:15:46.109Z,28.37
2018-06-10T22:01:12.581Z,28.00
2018-06-10T22:03:21.825Z,27.96
2018-06-10T22:05:29.844Z,27.60
2018-06-10T22:07:35.655Z,27.79
2018-06-10T22:09:41.034Z,27.95
2018-06-10T22:11:46.323Z,27.87
2018-06-10T22:13:51.847Z,27.48
2018-06-10T22:15:57.194Z,27.68
2018-06-10T22:18:02.352Z,27.55
2018-06-10T22:20:10.646Z,27.75
2018-06-10T22:22:20.896Z,27.83
2018-06-10T22:24:30.398Z,27.74
2018-06-10T22:26:35.945Z,27.76
2018-06-10T22:28:41.154Z,27.86
2018-06-10T22:30:46.350Z,27.89
2018-06-10T22:32:52.024Z,27.93
2018-06-10T22:34:57.226Z,27.52
2018-06-10T22:37:03.235Z,27.66
2018-06-10T22:39:13.507Z,27.72
2018-06-10T22:41:21.566Z,27.66
2018-06-10T22:43:26.988Z,27.63
2018-06-10T22:45:32.522Z,27.68
2018-06-10T22:47:37.765Z,27.72
2018-06-10T22:49:42.938Z,27.76
2018-06-10T22:51:48.762Z,27.48
2018-06-10T22:55:02.235Z,27.46
2018-06-10T22:57:11.669Z,27.27
2018-06-10T22:59:18.626Z,27.50
2018-06-10T23:01:26.970Z,27.45
2018-06-10T23:03:32.389Z,27.64
2018-06-10T23:05:37.592Z,27.72
2018-06-10T23:07:42.795Z,27.57
2018-06-10T23:09:48.896Z,27.43
2018-06-10T23:11:54.811Z,27.09
2018-06-10T23:14:01.111Z,26.94
2018-06-10T23:16:08.113Z,27.31
2018-06-10T23:18:19.065Z,27.26
2018-06-10T23:20:27.463Z,26.97
2018-06-10T23:22:33.034Z,27.00
2018-06-10T23:24:38.248Z,26.88
2018-06-10T23:26:44.226Z,26.89
2018-06-10T23:28:49.867Z,27.01
2018-06-10T23:30:55.612Z,26.72
2018-06-10T23:33:01.517Z,26.74
2018-06-10T23:35:10.205Z,27.01
2018-06-10T23:37:19.430Z,26.97
2018-06-10T23:39:25.233Z,27.07
2018-06-10T23:41:31.230Z,26.95
2018-06-10T23:43:36.460Z,26.93
2018-06-10T23:45:41.988Z,26.85
2018-06-10T23:47:47.656Z,26.81
2018-06-10T23:49:53.772Z,26.74
2018-06-10T23:52:00.134Z,26.44
2018-06-10T23:54:07.451Z,26.62
2018-06-10T23:56:18.229Z,26.88
2018-06-10T23:58:25.067Z,27.03
